Yellow Pine, ID (83677)

5:28 PM MDT on September 24, 2016 (GMT -0600)
MesoWest | | Change Station

Elev 6594 ft 44.90 °N, 115.34 °W | Updated 43 minutes ago

Clear
Clear
53 °F
Feels Like 53 °F
N
9
Wind Variable Wind from SW
Gusts 0.0 mph

Today
High -- | Low -- °F
--% Chance of Precip.
Yesterday
High -- | Low -- °F
Precip. -- in
Pressure 30.26 in
Visibility 10.0 miles
Clouds Clear
Dew Point 30 °F
Humidity 42%
Rainfall in
Snow Depth Not available.
7:31 AM 7:34 PM
Waning Crescent, 33% visible
METAR KMYL 242251Z AUTO 25011G14KT 10SM CLR 16/M01 A3031 RMK AO2 SLP246 T01561011
Pressure 30.26 in
Visibility 10.0 miles
Clouds Clear
Dew Point 30 °F
Humidity 42%
Rainfall in
Snow Depth Not available.
7:31 AM 7:34 PM
Waning Crescent, 33% visible
METAR KMYL 242251Z AUTO 25011G14KT 10SM CLR 16/M01 A3031 RMK AO2 SLP246 T01561011

10-Day Weather Forecast

Almanac

Astronomy

Sep. 24, 2016 Rise Set
Actual Time
Civil Twilight
Nautical Twilight
Astronomical Twilight
Moon
Length of Visible Light
Length of Day
Tomorrow will be .
, % of the Moon is Illuminated

Today's Extremes

State Highs State Lows

Community

WunderPhotos

Upload Photos

1,941,456 photos uploaded!

WunderBlog® & News

Nearby

Air Quality

  Air Quality AQ Index Pollutant
Not available.

Snow Depth

Station Depth Elevation

Earthquake Activity

City Distance Mag. Time & Date
Minimum magnitude displayed is 2.5.

Coastal Water Temperatures

Place Temperature

Stations

Nearby Weather Stations

Station Location Temp. Windchill Dew Point Humidity Wind Precip. Elev Updated Type
                   

Watches & Warnings

There are currently no watches in effect.